Time;durP1;ratioP1;P1;durP2;ratioP2;P2;SDS_P1;SDS_P2;PMS_P1;PMS_P2;Temp;Humidity;BMP_temperature;BMP_pressure;BME280_temperature;BME280_humidity;BME280_pressure;Samples;Min_cycle;Max_cycle;Signal;HPM_P1;HPM_P2
2021/03/18 00:01:00;;;;;;;6.20;3.92;;;-0.50;99.90;;;;;;5033335;28;20197;-66
2021/03/18 00:03:30;;;;;;;6.35;4.60;;;-0.50;99.90;;;;;;5033799;28;20181;-68
2021/03/18 00:06:00;;;;;;;8.93;4.57;;;-0.50;99.90;;;;;;5033192;28;20217;-66
2021/03/18 00:08:28;;;;;;;9.38;4.10;;;-0.60;99.90;;;;;;5033666;28;20207;-67
2021/03/18 00:10:59;;;;;;;4.72;4.25;;;-0.60;99.90;;;;;;5033497;28;20178;-68
2021/03/18 00:13:29;;;;;;;6.13;5.00;;;-0.70;99.90;;;;;;5033233;28;20193;-68
2021/03/18 00:15:57;;;;;;;5.20;4.18;;;-0.70;99.90;;;;;;5032986;28;20211;-66
2021/03/18 00:18:29;;;;;;;8.00;3.10;;;-0.80;99.90;;;;;;5033164;28;20188;-66
2021/03/18 00:20:57;;;;;;;5.97;3.72;;;-0.80;99.90;;;;;;5033591;28;20221;-67
2021/03/18 00:23:24;;;;;;;6.72;5.22;;;-0.90;99.90;;;;;;5033330;28;20177;-69
2021/03/18 00:25:52;;;;;;;6.05;5.45;;;-0.80;99.90;;;;;;5032473;28;20231;-66
2021/03/18 00:28:19;;;;;;;5.72;5.18;;;-0.80;99.90;;;;;;5034776;28;20557;-68
2021/03/18 00:30:46;;;;;;;4.80;4.32;;;-0.70;99.90;;;;;;5037771;28;20186;-68
2021/03/18 00:33:13;;;;;;;8.23;4.93;;;-0.60;99.90;;;;;;5032829;28;20215;-67
2021/03/18 00:35:41;;;;;;;7.45;6.13;;;-0.50;99.90;;;;;;5032341;28;20205;-67
2021/03/18 00:38:09;;;;;;;8.70;5.40;;;-0.40;99.90;;;;;;5014852;28;20197;-66
2021/03/18 00:40:40;;;;;;;7.38;4.35;;;-0.30;99.90;;;;;;5032175;28;20260;-68
2021/03/18 00:43:09;;;;;;;8.40;5.03;;;-0.30;99.90;;;;;;5032556;28;20260;-69
2021/03/18 00:45:38;;;;;;;4.85;4.32;;;-0.30;99.90;;;;;;5015421;28;20717;-67
2021/03/18 00:48:08;;;;;;;2.85;2.63;;;-0.30;99.90;;;;;;5033186;28;20271;-65
2021/03/18 00:50:40;;;;;;;7.05;5.07;;;-0.20;99.90;;;;;;5015828;28;20239;-65
2021/03/18 00:53:14;;;;;;;6.20;4.72;;;-0.30;99.90;;;;;;5016004;28;20192;-67
2021/03/18 00:55:41;;;;;;;5.05;4.65;;;-0.40;99.90;;;;;;5032363;28;20209;-68
2021/03/18 00:58:09;;;;;;;5.00;4.35;;;-0.40;99.90;;;;;;5032350;28;20225;-66
2021/03/18 01:00:39;;;;;;;7.85;4.97;;;-0.30;99.90;;;;;;5033151;28;20216;-68
2021/03/18 01:03:08;;;;;;;11.60;4.50;;;-0.30;99.90;;;;;;5033307;28;20232;-70
2021/03/18 01:05:40;;;;;;;5.30;4.75;;;-0.40;99.90;;;;;;5015467;28;20229;-65
2021/03/18 01:08:09;;;;;;;6.97;4.80;;;-0.40;99.90;;;;;;5014900;28;20193;-67
2021/03/18 01:10:39;;;;;;;9.55;8.00;;;-0.40;99.90;;;;;;5033383;28;20620;-68
2021/03/18 01:13:07;;;;;;;5.22;4.75;;;-0.40;99.90;;;;;;5033142;28;20206;-69
2021/03/18 01:15:35;;;;;;;13.25;5.60;;;-0.40;99.90;;;;;;5033103;28;20251;-68
2021/03/18 01:18:04;;;;;;;7.80;5.10;;;-0.30;99.90;;;;;;5033229;28;20189;-67
2021/03/18 01:20:31;;;;;;;4.53;3.92;;;-0.30;99.90;;;;;;5032672;28;20173;-67
2021/03/18 01:22:58;;;;;;;8.50;5.07;;;-0.30;99.90;;;;;;5032755;28;20186;-67
2021/03/18 01:25:25;;;;;;;3.47;3.17;;;-0.20;99.90;;;;;;5032956;28;20284;-66
2021/03/18 01:27:53;;;;;;;4.57;4.10;;;-0.10;99.90;;;;;;5032590;28;20190;-65
2021/03/18 01:30:24;;;;;;;4.35;3.95;;;-0.10;99.90;;;;;;5032742;28;20266;-67
2021/03/18 01:32:51;;;;;;;4.10;3.70;;;-0.10;99.90;;;;;;5032045;28;20265;-67
2021/03/18 01:35:21;;;;;;;5.63;3.53;;;0.00;99.90;;;;;;5031793;28;20169;-69
2021/03/18 01:37:49;;;;;;;6.32;4.53;;;0.10;99.90;;;;;;5030630;28;20193;-67
2021/03/18 01:40:20;;;;;;;5.18;4.10;;;0.10;99.90;;;;;;5032749;28;20302;-67
2021/03/18 01:42:48;;;;;;;4.95;4.55;;;0.20;99.90;;;;;;5033142;28;20177;-68
2021/03/18 01:45:17;;;;;;;6.75;4.65;;;0.20;99.90;;;;;;5036638;28;20696;-69
2021/03/18 01:47:47;;;;;;;7.75;4.18;;;0.20;99.90;;;;;;5035566;28;20177;-68
2021/03/18 01:50:16;;;;;;;7.47;5.68;;;0.20;99.90;;;;;;5035378;28;20264;-68
2021/03/18 01:52:44;;;;;;;5.45;3.85;;;0.30;99.90;;;;;;5035776;28;20197;-69
2021/03/18 01:55:16;;;;;;;6.22;4.47;;;0.30;99.90;;;;;;5035273;28;20662;-66
2021/03/18 01:57:43;;;;;;;5.40;3.67;;;0.40;99.90;;;;;;5035328;28;20188;-65
2021/03/18 02:00:12;;;;;;;7.07;4.38;;;0.40;99.90;;;;;;5035451;28;20182;-66
2021/03/18 02:02:57;;;;;;;7.25;4.25;;;0.40;99.90;;;;;;5035730;28;20173;-68
2021/03/18 02:05:26;;;;;;;6.20;3.88;;;0.40;99.90;;;;;;5035595;28;20198;-68
2021/03/18 02:07:54;;;;;;;3.00;2.80;;;0.30;99.90;;;;;;5035620;28;20196;-66
2021/03/18 02:10:24;;;;;;;10.27;4.75;;;0.30;99.90;;;;;;5035427;28;20174;-65
2021/03/18 02:12:51;;;;;;;4.82;4.43;;;0.30;99.90;;;;;;5034024;28;20652;-65
2021/03/18 02:15:21;;;;;;;6.75;5.22;;;0.40;99.90;;;;;;5035253;28;20185;-68
2021/03/18 02:17:54;;;;;;;5.35;4.85;;;0.40;99.90;;;;;;5035473;28;20570;-67
2021/03/18 02:21:03;;;;;;;6.90;4.35;;;0.50;99.90;;;;;;5035763;28;20197;-66
2021/03/18 02:24:07;;;;;;;5.15;4.63;;;0.60;99.90;;;;;;5024282;28;20197;-67
2021/03/18 02:27:17;;;;;;;6.78;3.30;;;0.60;99.90;;;;;;5034999;28;20689;-66
2021/03/18 02:30:25;;;;;;;4.45;3.80;;;0.50;99.90;;;;;;5035456;28;20248;-68
2021/03/18 02:33:13;;;;;;;6.93;3.83;;;0.40;99.90;;;;;;5035668;28;20190;-67
2021/03/18 02:35:44;;;;;;;7.43;5.78;;;0.40;99.90;;;;;;5035244;28;20224;-68
2021/03/18 02:38:14;;;;;;;3.90;3.50;;;0.40;99.90;;;;;;5035314;28;20170;-66
2021/03/18 02:40:45;;;;;;;6.35;3.65;;;0.40;99.90;;;;;;5035255;28;20177;-66
2021/03/18 02:43:15;;;;;;;6.45;3.83;;;0.40;99.90;;;;;;5035058;28;20180;-64
2021/03/18 02:45:45;;;;;;;7.75;4.50;;;0.30;99.90;;;;;;5034900;28;20263;-66
2021/03/18 02:48:22;;;;;;;5.93;4.65;;;0.30;99.90;;;;;;5034749;28;20209;-65
2021/03/18 02:50:52;;;;;;;4.32;3.92;;;0.30;99.90;;;;;;5035027;28;20186;-69
2021/03/18 02:53:22;;;;;;;5.05;3.10;;;0.30;99.90;;;;;;5035067;28;20192;-66
2021/03/18 02:55:51;;;;;;;6.03;3.60;;;0.30;99.90;;;;;;5033202;28;20224;-68
2021/03/18 02:58:21;;;;;;;6.05;4.53;;;0.40;99.90;;;;;;5036020;28;20209;-67
2021/03/18 03:00:50;;;;;;;6.80;5.40;;;0.40;99.90;;;;;;5036414;28;20226;-68
2021/03/18 03:03:35;;;;;;;5.60;4.13;;;0.40;99.90;;;;;;5035974;28;20185;-66
2021/03/18 03:06:05;;;;;;;4.70;3.60;;;0.40;99.90;;;;;;5036597;28;20214;-66
2021/03/18 03:08:34;;;;;;;8.13;5.22;;;0.40;99.90;;;;;;5035488;28;20170;-67
2021/03/18 03:11:04;;;;;;;6.90;4.35;;;0.40;99.90;;;;;;5034306;28;20184;-67
2021/03/18 03:13:33;;;;;;;8.20;4.35;;;0.40;99.90;;;;;;5034179;28;20192;-67
2021/03/18 03:16:02;;;;;;;3.78;3.35;;;0.40;99.90;;;;;;5033899;28;20205;-67
2021/03/18 03:18:32;;;;;;;6.68;4.13;;;0.40;99.90;;;;;;5033847;28;20200;-65
2021/03/18 03:21:01;;;;;;;6.20;4.35;;;0.50;99.90;;;;;;5034368;28;20174;-66
2021/03/18 03:23:29;;;;;;;7.70;5.07;;;0.50;99.90;;;;;;5034595;28;20190;-64
2021/03/18 03:26:00;;;;;;;4.70;4.13;;;0.40;99.90;;;;;;5034661;28;20308;-66
2021/03/18 03:28:28;;;;;;;6.55;4.10;;;0.50;99.90;;;;;;5033955;28;20269;-68
2021/03/18 03:30:57;;;;;;;7.57;4.60;;;0.50;99.90;;;;;;5033952;28;20776;-66
2021/03/18 03:33:25;;;;;;;4.13;3.53;;;0.60;99.90;;;;;;5034315;28;20615;-66
2021/03/18 03:35:53;;;;;;;5.93;3.67;;;0.60;99.90;;;;;;5034068;28;20296;-65
2021/03/18 03:38:20;;;;;;;5.88;3.20;;;0.60;99.90;;;;;;5033664;28;20194;-66
2021/03/18 03:40:50;;;;;;;7.03;4.15;;;0.60;99.90;;;;;;5033911;28;20212;-68
2021/03/18 03:43:19;;;;;;;5.00;3.53;;;0.60;99.90;;;;;;5033540;28;20185;-67
2021/03/18 03:45:47;;;;;;;7.53;5.13;;;0.60;99.90;;;;;;5033447;28;20216;-66
2021/03/18 03:48:14;;;;;;;3.78;3.30;;;0.60;99.90;;;;;;5034075;28;20193;-67
2021/03/18 03:50:42;;;;;;;4.72;3.05;;;0.50;99.90;;;;;;5035492;28;20610;-65
2021/03/18 03:53:18;;;;;;;4.88;3.28;;;0.50;99.90;;;;;;5035179;28;20181;-66
2021/03/18 03:55:57;;;;;;;4.45;3.85;;;0.50;99.90;;;;;;5035135;28;20208;-65
2021/03/18 03:58:35;;;;;;;4.07;3.67;;;0.50;99.90;;;;;;5018790;28;20646;-65
2021/03/18 04:01:05;;;;;;;6.93;3.75;;;0.50;99.90;;;;;;5028773;23;20228;-82
2021/03/18 04:03:35;;;;;;;3.67;3.35;;;0.40;99.90;;;;;;5019920;28;20179;-82
2021/03/18 04:06:05;;;;;;;4.60;3.35;;;0.40;99.90;;;;;;5021469;28;20209;-82
2021/03/18 04:08:35;;;;;;;3.38;3.10;;;0.50;99.90;;;;;;5023038;28;20179;-81
2021/03/18 04:11:04;;;;;;;4.10;3.80;;;0.50;99.90;;;;;;5014262;28;20230;-81
2021/03/18 04:13:33;;;;;;;8.30;4.82;;;0.40;99.90;;;;;;5001239;28;20625;-81
2021/03/18 04:16:03;;;;;;;5.43;3.70;;;0.40;99.90;;;;;;5001641;28;20238;-81
2021/03/18 04:18:35;;;;;;;5.25;3.65;;;0.40;99.90;;;;;;5002224;28;20206;-81
2021/03/18 04:21:06;;;;;;;5.10;4.70;;;0.40;99.90;;;;;;5002728;28;20202;-82
2021/03/18 04:23:34;;;;;;;6.38;4.75;;;0.50;99.90;;;;;;5003891;28;20171;-82
2021/03/18 04:26:02;;;;;;;5.38;3.95;;;0.60;99.90;;;;;;5001397;28;20203;-81
2021/03/18 04:28:31;;;;;;;6.80;4.35;;;0.50;99.90;;;;;;5001284;28;20210;-81
2021/03/18 04:31:00;;;;;;;5.82;4.60;;;0.50;99.90;;;;;;5006963;28;20210;-82
2021/03/18 04:33:28;;;;;;;5.97;3.80;;;0.50;99.90;;;;;;5005846;28;20207;-82
2021/03/18 04:35:58;;;;;;;3.88;3.40;;;0.40;99.90;;;;;;5008796;28;20182;-82
2021/03/18 04:38:26;;;;;;;4.95;3.00;;;0.50;99.90;;;;;;5008572;28;20222;-81
2021/03/18 04:40:57;;;;;;;4.05;3.75;;;0.40;99.90;;;;;;5007307;28;20237;-81
2021/03/18 04:43:26;;;;;;;4.43;4.05;;;0.40;99.90;;;;;;5008296;28;20195;-81
2021/03/18 04:45:57;;;;;;;7.20;5.00;;;0.40;99.90;;;;;;4999124;28;20253;-82
2021/03/18 04:48:25;;;;;;;4.80;4.38;;;0.40;99.90;;;;;;4999384;28;20186;-82
2021/03/18 04:50:53;;;;;;;3.63;3.33;;;0.40;99.90;;;;;;4998844;28;20210;-81
2021/03/18 04:53:21;;;;;;;13.68;6.18;;;0.40;99.90;;;;;;4999757;28;20485;-82
2021/03/18 04:55:49;;;;;;;5.70;4.97;;;0.50;99.90;;;;;;4999295;28;20175;-81
2021/03/18 04:58:20;;;;;;;5.85;4.45;;;0.60;99.90;;;;;;5014182;28;20202;-82
2021/03/18 05:00:50;;;;;;;8.25;3.83;;;0.60;99.90;;;;;;4995042;28;20737;-81
2021/03/18 05:03:18;;;;;;;6.30;3.97;;;0.60;99.90;;;;;;4980127;28;20690;-82
2021/03/18 05:05:46;;;;;;;5.40;4.13;;;0.60;99.90;;;;;;4980220;28;20282;-83
2021/03/18 05:08:17;;;;;;;5.75;5.18;;;0.60;99.90;;;;;;4980040;28;20685;-81
2021/03/18 05:10:46;;;;;;;5.82;4.15;;;0.60;99.90;;;;;;4979815;28;20203;-81
2021/03/18 05:13:14;;;;;;;8.02;4.60;;;0.70;99.90;;;;;;4979653;28;20172;-81
2021/03/18 05:15:42;;;;;;;8.82;5.35;;;0.70;99.90;;;;;;4979758;28;20190;-81
2021/03/18 05:18:14;;;;;;;5.43;4.03;;;0.80;99.90;;;;;;4982811;28;20179;-82
2021/03/18 05:20:44;;;;;;;7.53;4.57;;;0.70;99.90;;;;;;4983327;28;20278;-82
2021/03/18 05:23:13;;;;;;;6.28;5.35;;;0.70;99.90;;;;;;4983466;28;20643;-82
2021/03/18 05:25:41;;;;;;;7.70;5.70;;;0.70;99.90;;;;;;4982540;28;20205;-82
2021/03/18 05:28:09;;;;;;;6.55;5.70;;;0.70;99.90;;;;;;4982312;28;20186;-82
2021/03/18 05:30:37;;;;;;;13.05;7.55;;;0.70;99.90;;;;;;4965481;28;20237;-82
2021/03/18 05:33:07;;;;;;;7.47;5.07;;;0.80;99.90;;;;;;4984333;28;20271;-82
2021/03/18 05:35:39;;;;;;;8.18;5.07;;;0.70;99.90;;;;;;4982376;28;20553;-82
2021/03/18 05:38:08;;;;;;;8.98;5.60;;;0.60;99.90;;;;;;4981962;28;20175;-82
2021/03/18 05:40:37;;;;;;;8.63;3.92;;;0.60;99.90;;;;;;4981797;28;20270;-82
2021/03/18 05:43:05;;;;;;;9.75;6.35;;;0.60;99.90;;;;;;4981056;28;20266;-82
2021/03/18 05:45:33;;;;;;;10.13;4.70;;;0.60;99.90;;;;;;4981357;28;20642;-82
2021/03/18 05:48:01;;;;;;;10.45;7.05;;;0.60;99.90;;;;;;4982381;28;20187;-82
2021/03/18 05:50:32;;;;;;;9.65;6.95;;;0.70;99.90;;;;;;4972591;28;20183;-82
2021/03/18 05:53:02;;;;;;;6.97;5.53;;;0.90;99.90;;;;;;5000329;28;20171;-81
2021/03/18 05:55:30;;;;;;;9.00;5.53;;;1.00;99.90;;;;;;4999469;28;20188;-83
2021/03/18 05:57:58;;;;;;;8.73;4.53;;;1.20;99.90;;;;;;4994757;28;20191;-83
2021/03/18 06:00:28;;;;;;;5.97;4.68;;;1.20;99.90;;;;;;4985158;28;20242;-83
2021/03/18 06:02:56;;;;;;;5.47;4.82;;;1.40;99.90;;;;;;4983185;28;20581;-83
2021/03/18 06:05:24;;;;;;;6.25;5.43;;;1.50;99.90;;;;;;4983102;28;20187;-83
2021/03/18 06:07:51;;;;;;;6.65;4.03;;;1.60;99.90;;;;;;4979275;28;20216;-84
2021/03/18 06:10:21;;;;;;;7.13;4.13;;;1.70;99.90;;;;;;4963336;28;20199;-82
2021/03/18 06:12:49;;;;;;;6.50;5.80;;;1.80;99.90;;;;;;4998587;28;20198;-81
2021/03/18 06:15:17;;;;;;;8.85;5.00;;;1.80;99.90;;;;;;4999676;28;20180;-82
2021/03/18 06:17:45;;;;;;;8.10;6.00;;;1.90;99.90;;;;;;4999987;28;20192;-83
2021/03/18 06:20:14;;;;;;;12.13;8.55;;;2.00;99.90;;;;;;4998987;28;20187;-82
2021/03/18 06:22:44;;;;;;;11.25;6.38;;;2.10;99.90;;;;;;4972716;28;20191;-82
2021/03/18 06:25:26;;;;;;;9.35;7.13;;;2.30;99.90;;;;;;4985432;28;20180;-83
2021/03/18 06:28:21;;;;;;;8.80;7.20;;;2.30;99.90;;;;;;4981677;28;20211;-83
2021/03/18 06:31:13;;;;;;;8.70;6.15;;;2.20;99.90;;;;;;4963069;28;20215;-83
2021/03/18 06:33:43;;;;;;;13.50;5.72;;;2.00;99.90;;;;;;4967806;28;20210;-83
2021/03/18 06:36:28;;;;;;;6.85;4.63;;;2.00;99.90;;;;;;4980722;28;20631;-83
2021/03/18 06:39:00;;;;;;;10.32;7.22;;;2.10;99.90;;;;;;4979990;28;20262;-83
2021/03/18 06:41:33;;;;;;;5.70;5.10;;;2.20;99.90;;;;;;4983166;28;20212;-82
2021/03/18 06:44:01;;;;;;;7.32;5.55;;;2.40;99.90;;;;;;4983315;28;20182;-83
2021/03/18 06:46:28;;;;;;;6.85;6.07;;;2.30;99.90;;;;;;4981997;28;20275;-82
2021/03/18 06:49:09;;;;;;;8.52;6.38;;;2.40;99.90;;;;;;4981666;28;20632;-82
2021/03/18 06:51:36;;;;;;;9.77;6.78;;;2.50;99.90;;;;;;4982085;28;20278;-82
2021/03/18 06:54:17;;;;;;;9.45;6.68;;;2.60;99.90;;;;;;4983166;28;20176;-83
2021/03/18 06:56:54;;;;;;;9.23;7.55;;;2.50;99.90;;;;;;4987023;28;20171;-82
2021/03/18 06:59:23;;;;;;;6.93;5.40;;;2.60;99.90;;;;;;4975939;28;20191;-82
2021/03/18 07:02:04;;;;;;;6.63;5.32;;;2.50;99.90;;;;;;4993317;28;20228;-82
2021/03/18 07:04:33;;;;;;;8.32;6.07;;;2.50;99.90;;;;;;4990973;28;20180;-82
2021/03/18 07:07:01;;;;;;;8.93;6.47;;;2.50;99.90;;;;;;4993729;28;20203;-83
2021/03/18 07:09:30;;;;;;;5.72;4.80;;;2.40;99.90;;;;;;4997813;28;20184;-81
2021/03/18 07:12:03;;;;;;;7.60;6.60;;;2.40;99.90;;;;;;4998336;28;20254;-82
2021/03/18 07:14:35;;;;;;;7.03;6.28;;;2.50;99.90;;;;;;4981019;28;20186;-82
2021/03/18 07:17:04;;;;;;;9.55;7.35;;;2.50;99.90;;;;;;5000339;28;20160;-82
2021/03/18 07:19:32;;;;;;;7.57;4.93;;;2.50;99.90;;;;;;4999852;28;20188;-82
2021/03/18 07:22:00;;;;;;;7.35;6.35;;;2.60;99.90;;;;;;5000280;28;20191;-82
2021/03/18 07:24:32;;;;;;;9.68;6.65;;;2.60;99.90;;;;;;5000042;28;20176;-82
2021/03/18 07:27:07;;;;;;;7.95;7.25;;;2.70;99.90;;;;;;4998683;28;20198;-84
2021/03/18 07:29:41;;;;;;;9.48;7.28;;;2.70;99.90;;;;;;4999278;28;20164;-84
2021/03/18 07:32:09;;;;;;;8.60;6.00;;;2.60;99.90;;;;;;4998094;28;20219;-82
2021/03/18 07:34:37;;;;;;;10.02;7.07;;;2.50;99.90;;;;;;4998277;28;20263;-83
2021/03/18 07:37:06;;;;;;;9.57;8.20;;;2.50;99.90;;;;;;4994230;28;20191;-84
2021/03/18 07:39:34;;;;;;;10.40;6.95;;;2.60;99.90;;;;;;4996690;28;20184;-83
2021/03/18 07:42:03;;;;;;;10.05;6.85;;;2.80;99.90;;;;;;4992398;28;20255;-84
2021/03/18 07:44:33;;;;;;;8.00;6.45;;;2.80;99.90;;;;;;4983652;28;20263;-84
2021/03/18 07:47:01;;;;;;;13.27;5.43;;;3.00;99.90;;;;;;4983225;28;20275;-84
2021/03/18 07:49:32;;;;;;;8.75;7.00;;;3.20;99.90;;;;;;4983828;28;20222;-83
2021/03/18 07:52:04;;;;;;;9.95;6.55;;;3.40;99.90;;;;;;4985633;28;20218;-82
2021/03/18 07:54:32;;;;;;;6.97;6.18;;;3.60;99.90;;;;;;4983657;28;20206;-84
2021/03/18 07:57:00;;;;;;;8.93;7.00;;;3.80;99.90;;;;;;4983783;28;20176;-83
2021/03/18 07:59:32;;;;;;;11.98;7.55;;;3.90;99.90;;;;;;4985057;28;20267;-85
2021/03/18 08:02:17;;;;;;;10.73;7.82;;;4.10;99.90;;;;;;4985304;28;20218;-83
2021/03/18 08:04:47;;;;;;;15.73;9.23;;;4.20;99.90;;;;;;4971219;28;20254;-85
2021/03/18 08:07:45;;;;;;;17.85;10.10;;;4.20;99.90;;;;;;4983311;28;20195;-84
2021/03/18 08:10:14;;;;;;;12.77;8.05;;;4.40;99.90;;;;;;4987705;28;20218;-85
2021/03/18 08:12:44;;;;;;;11.45;7.28;;;4.60;99.90;;;;;;4966445;28;20677;-85
2021/03/18 08:15:47;;;;;;;13.27;8.00;;;4.70;99.90;;;;;;4985464;28;20186;-84
2021/03/18 08:18:35;;;;;;;10.48;6.78;;;4.60;99.90;;;;;;4974191;28;20214;-84
2021/03/18 08:21:08;;;;;;;10.77;8.05;;;4.80;99.90;;;;;;4973120;28;20237;-85
2021/03/18 08:23:43;;;;;;;9.75;7.68;;;4.70;99.90;;;;;;4964875;28;20263;-85
2021/03/18 08:26:18;;;;;;;14.27;9.35;;;4.70;99.90;;;;;;4982214;28;20203;-85
2021/03/18 08:28:47;;;;;;;18.40;6.55;;;4.80;99.90;;;;;;4964577;28;20264;-83
2021/03/18 08:31:17;;;;;;;9.80;7.80;;;4.70;99.90;;;;;;4981405;28;20768;-84
2021/03/18 08:33:48;;;;;;;10.88;8.82;;;4.70;99.90;;;;;;4980450;28;20180;-84
2021/03/18 08:36:25;;;;;;;12.13;8.57;;;4.80;99.90;;;;;;4979798;28;20182;-84
2021/03/18 08:38:56;;;;;;;12.93;8.38;;;4.90;99.90;;;;;;4993542;28;20190;-84
2021/03/18 08:41:30;;;;;;;11.70;8.00;;;5.00;99.90;;;;;;4999051;28;20191;-85
2021/03/18 08:44:22;;;;;;;15.75;9.90;;;5.50;99.90;;;;;;4982403;28;20181;-85
2021/03/18 08:46:54;;;;;;;8.57;7.63;;;5.70;99.90;;;;;;4998756;28;20255;-84
2021/03/18 08:49:28;;;;;;;11.57;8.80;;;5.90;99.90;;;;;;4998686;28;20171;-84
2021/03/18 08:51:59;;;;;;;11.35;7.10;;;6.00;99.90;;;;;;4980567;28;20214;-82
2021/03/18 08:54:50;;;;;;;10.48;6.97;;;6.20;99.90;;;;;;4977203;28;20200;-82
2021/03/18 08:57:29;;;;;;;11.32;7.40;;;6.30;99.90;;;;;;4979079;28;20175;-81
2021/03/18 09:00:00;;;;;;;10.90;7.75;;;6.20;99.90;;;;;;4981138;28;20634;-81
2021/03/18 09:02:31;;;;;;;13.73;7.35;;;6.20;99.90;;;;;;4985564;28;20280;-81
2021/03/18 09:05:01;;;;;;;9.25;6.80;;;6.20;99.90;;;;;;4980181;28;20642;-84
2021/03/18 09:07:30;;;;;;;9.52;6.47;;;6.10;99.90;;;;;;4981485;28;20204;-83
2021/03/18 09:09:59;;;;;;;8.35;7.32;;;5.90;99.90;;;;;;4981659;28;20527;-82
2021/03/18 09:12:38;;;;;;;8.50;6.72;;;5.80;99.90;;;;;;4980967;28;20238;-83
2021/03/18 09:15:21;;;;;;;7.85;6.72;;;6.10;99.90;;;;;;4981689;28;20191;-85
2021/03/18 09:17:52;;;;;;;10.85;7.88;;;6.10;99.90;;;;;;4979978;28;20203;-86
2021/03/18 09:20:24;;;;;;;8.40;7.00;;;6.30;99.90;;;;;;4979182;28;20274;-81
2021/03/18 09:22:53;;;;;;;8.95;7.60;;;6.40;99.90;;;;;;4967716;28;20220;-82
2021/03/18 09:25:26;;;;;;;10.10;6.43;;;6.50;99.90;;;;;;4966328;28;20239;-84
2021/03/18 09:27:54;;;;;;;12.15;7.65;;;6.90;99.90;;;;;;4987310;28;20218;-82
2021/03/18 09:30:28;;;;;;;12.15;9.18;;;7.20;99.90;;;;;;4971060;28;20207;-82
2021/03/18 09:32:57;;;;;;;13.52;8.52;;;7.10;99.90;;;;;;4989650;28;20188;-85
2021/03/18 09:35:27;;;;;;;11.50;6.65;;;6.70;99.90;;;;;;4987209;28;20183;-82
2021/03/18 09:37:57;;;;;;;8.52;5.50;;;6.50;99.90;;;;;;4981049;28;20235;-80
2021/03/18 09:40:33;;;;;;;8.45;5.78;;;6.70;99.90;;;;;;4984966;28;20444;-87
2021/03/18 09:43:02;;;;;;;7.32;5.55;;;6.90;99.90;;;;;;4987122;28;20172;-83
2021/03/18 09:45:30;;;;;;;10.10;7.40;;;6.90;99.90;;;;;;4987161;28;20286;-82
2021/03/18 09:48:01;;;;;;;7.05;4.78;;;6.80;99.90;;;;;;4988225;28;20199;-83
2021/03/18 09:50:32;;;;;;;8.02;6.25;;;6.70;99.90;;;;;;4971592;28;20199;-85
2021/03/18 09:53:11;;;;;;;5.80;4.50;;;6.30;99.90;;;;;;4986649;28;20226;-82
2021/03/18 09:55:39;;;;;;;9.35;6.00;;;6.20;99.90;;;;;;4970503;28;20738;-83
2021/03/18 09:58:08;;;;;;;5.78;4.85;;;6.20;99.90;;;;;;4969180;28;20307;-84
2021/03/18 10:00:38;;;;;;;7.60;5.50;;;5.80;99.90;;;;;;4988500;28;20207;-86
2021/03/18 10:03:06;;;;;;;7.93;5.95;;;5.70;99.90;;;;;;4995087;23;20788;-66
2021/03/18 10:05:35;;;;;;;7.50;4.85;;;5.70;99.90;;;;;;4990395;28;20197;-67
2021/03/18 10:08:03;;;;;;;5.15;4.28;;;5.50;99.90;;;;;;4978577;28;20701;-65
2021/03/18 10:10:33;;;;;;;7.95;4.80;;;5.40;99.90;;;;;;4976704;28;20203;-64
2021/03/18 10:13:02;;;;;;;9.48;5.55;;;5.30;99.90;;;;;;4976994;28;20198;-65
2021/03/18 10:15:30;;;;;;;9.38;5.78;;;5.30;99.90;;;;;;4976945;28;20171;-66
2021/03/18 10:17:58;;;;;;;8.38;5.28;;;5.60;99.90;;;;;;4976770;28;20660;-68
2021/03/18 10:20:32;;;;;;;10.43;5.13;;;5.80;99.90;;;;;;4977059;28;20204;-67
2021/03/18 10:23:03;;;;;;;6.97;5.45;;;5.80;99.90;;;;;;4976220;28;20192;-67
2021/03/18 10:25:33;;;;;;;9.05;5.18;;;6.00;99.90;;;;;;4975602;28;20230;-67
2021/03/18 10:28:04;;;;;;;8.55;5.70;;;6.30;99.90;;;;;;4975967;28;20747;-67
2021/03/18 10:30:33;;;;;;;7.32;4.63;;;6.50;99.90;;;;;;4979427;28;20237;-68
2021/03/18 10:33:10;;;;;;;5.90;4.15;;;6.60;99.90;;;;;;4974924;28;20192;-70
2021/03/18 10:35:41;;;;;;;8.88;4.97;;;6.80;99.90;;;;;;4976185;28;20313;-69
2021/03/18 10:38:10;;;;;;;6.97;4.78;;;7.00;99.90;;;;;;4975433;28;20754;-66
2021/03/18 10:40:41;;;;;;;6.00;5.38;;;7.10;99.90;;;;;;4976483;28;20214;-69
2021/03/18 10:43:20;;;;;;;5.93;4.85;;;7.30;99.90;;;;;;4976528;28;20277;-65
2021/03/18 10:45:48;;;;;;;7.30;4.43;;;7.00;99.90;;;;;;4977171;28;20257;-67
2021/03/18 10:48:22;;;;;;;7.63;5.05;;;7.10;99.90;;;;;;4979171;28;20218;-66
2021/03/18 10:50:51;;;;;;;9.75;5.03;;;7.30;99.90;;;;;;4979474;28;20258;-66
2021/03/18 10:53:20;;;;;;;7.65;4.90;;;7.30;99.90;;;;;;4979453;28;20207;-69
2021/03/18 10:56:09;;;;;;;14.32;5.38;;;7.50;99.90;;;;;;4967622;28;20251;-66
2021/03/18 10:58:37;;;;;;;10.45;6.13;;;7.90;99.90;;;;;;4959263;29;20196;-66
2021/03/18 11:01:07;;;;;;;9.35;5.10;;;8.30;99.90;;;;;;4957464;28;20287;-67
2021/03/18 11:03:36;;;;;;;6.60;4.90;;;8.30;99.90;;;;;;4956862;29;20565;-66
2021/03/18 11:06:15;;;;;;;5.88;4.40;;;7.80;99.90;;;;;;4957395;29;20216;-66
2021/03/18 11:08:44;;;;;;;9.60;5.85;;;7.70;99.90;;;;;;4960792;28;20198;-65
2021/03/18 11:11:13;;;;;;;6.90;4.90;;;7.60;99.90;;;;;;4975194;28;20191;-67
2021/03/18 11:13:42;;;;;;;7.85;4.80;;;7.60;99.90;;;;;;4975743;28;20195;-66
2021/03/18 11:16:10;;;;;;;8.80;4.93;;;7.80;99.90;;;;;;4973087;28;20234;-67
2021/03/18 11:18:40;;;;;;;8.30;5.20;;;8.10;99.90;;;;;;4962733;28;20661;-67
2021/03/18 11:21:21;;;;;;;14.63;7.05;;;8.20;99.90;;;;;;4955521;29;20199;-66
2021/03/18 11:23:50;;;;;;;12.48;4.93;;;8.00;99.90;;;;;;4955152;29;20198;-67
2021/03/18 11:26:20;;;;;;;9.82;6.88;;;7.90;99.90;;;;;;4955358;28;20582;-67
2021/03/18 11:28:50;;;;;;;6.15;5.35;;;8.10;99.90;;;;;;4954992;29;20195;-65
2021/03/18 11:31:18;;;;;;;6.43;4.95;;;8.30;99.90;;;;;;4953426;29;20196;-64
2021/03/18 11:33:46;;;;;;;6.00;5.40;;;8.30;99.90;;;;;;4954842;29;20204;-65
2021/03/18 11:36:13;;;;;;;5.78;4.32;;;8.40;99.90;;;;;;4954388;29;20263;-67
2021/03/18 11:38:42;;;;;;;7.25;4.90;;;8.30;99.90;;;;;;4954750;29;20271;-64
2021/03/18 11:41:09;;;;;;;7.18;4.80;;;8.40;99.90;;;;;;4954808;29;20184;-62
2021/03/18 11:43:37;;;;;;;8.00;4.88;;;8.90;99.90;;;;;;4954627;28;20247;-62
2021/03/18 11:46:04;;;;;;;5.68;3.88;;;9.20;99.90;;;;;;4954916;29;20216;-65
2021/03/18 11:48:33;;;;;;;5.03;4.05;;;9.30;99.90;;;;;;4954259;29;20220;-64
2021/03/18 11:51:01;;;;;;;7.10;4.00;;;9.00;99.90;;;;;;4954906;29;20219;-65
2021/03/18 11:53:28;;;;;;;5.35;4.57;;;8.90;99.90;;;;;;4954156;29;20574;-64
2021/03/18 11:55:56;;;;;;;7.05;4.43;;;8.90;99.90;;;;;;4954745;29;20211;-64
2021/03/18 11:58:23;;;;;;;5.13;3.47;;;9.10;99.90;;;;;;4954791;29;20192;-64
2021/03/18 12:00:51;;;;;;;4.03;3.70;;;9.40;99.90;;;;;;4954982;28;20720;-65
2021/03/18 12:03:18;;;;;;;4.70;3.90;;;9.20;99.90;;;;;;4955054;29;20192;-64
2021/03/18 12:05:45;;;;;;;5.97;3.65;;;9.10;99.90;;;;;;4954715;28;20223;-65
2021/03/18 12:08:13;;;;;;;5.88;3.50;;;8.80;99.90;;;;;;4955214;28;20227;-67
2021/03/18 12:11:01;;;;;;;6.85;4.18;;;8.60;99.90;;;;;;4974218;28;20198;-67
2021/03/18 12:13:28;;;;;;;4.30;3.10;;;8.90;99.90;;;;;;4973121;28;20639;-66
2021/03/18 12:15:56;;;;;;;5.40;3.80;;;9.30;99.90;;;;;;4983602;28;20601;-67
2021/03/18 12:18:23;;;;;;;4.93;2.95;;;9.50;99.90;;;;;;4971887;28;20897;-67
2021/03/18 12:20:51;;;;;;;3.58;2.65;;;9.40;99.90;;;;;;4973628;28;20246;-68
2021/03/18 12:23:19;;;;;;;4.78;3.67;;;9.50;99.90;;;;;;4973239;28;20222;-67
2021/03/18 12:25:46;;;;;;;6.80;3.42;;;9.20;99.90;;;;;;4972706;28;20234;-66
2021/03/18 12:28:19;;;;;;;5.05;3.67;;;9.10;99.90;;;;;;4972712;28;20204;-68
2021/03/18 12:30:47;;;;;;;4.07;3.67;;;9.10;99.90;;;;;;4973080;28;20176;-66
2021/03/18 12:33:17;;;;;;;5.07;3.28;;;8.80;99.90;;;;;;4973244;28;20199;-67
2021/03/18 12:35:45;;;;;;;4.68;3.78;;;8.80;99.90;;;;;;4972524;28;20285;-66
2021/03/18 12:38:12;;;;;;;5.90;3.03;;;8.70;99.90;;;;;;4972209;28;20195;-67
2021/03/18 12:40:40;;;;;;;5.60;2.88;;;8.60;99.90;;;;;;4972581;28;20191;-67
2021/03/18 12:43:07;;;;;;;3.28;2.33;;;8.70;99.90;;;;;;4972516;28;20195;-69
2021/03/18 12:45:36;;;;;;;3.55;2.55;;;8.60;99.90;;;;;;4963952;28;20195;-67
2021/03/18 12:48:04;;;;;;;4.18;2.70;;;8.40;99.90;;;;;;4937306;29;20230;-64
2021/03/18 12:50:31;;;;;;;3.40;2.78;;;7.80;99.90;;;;;;4953813;29;20704;-68
2021/03/18 12:52:59;;;;;;;5.63;2.75;;;7.40;99.90;;;;;;4953883;29;20200;-66
2021/03/18 12:55:26;;;;;;;3.58;2.65;;;6.60;99.90;;;;;;4953135;28;20214;-67
2021/03/18 12:57:55;;;;;;;4.65;3.42;;;6.00;99.90;;;;;;4964341;28;20187;-68
2021/03/18 13:00:26;;;;;;;3.85;2.72;;;5.70;99.90;;;;;;4992621;28;20182;-67
2021/03/18 13:02:55;;;;;;;4.57;2.92;;;5.40;99.90;;;;;;4987884;28;20207;-68
2021/03/18 13:05:23;;;;;;;3.45;2.08;;;5.50;99.90;;;;;;4992553;28;20186;-66
2021/03/18 13:07:50;;;;;;;3.38;2.13;;;5.60;99.90;;;;;;4992564;28;20675;-66
2021/03/18 13:10:19;;;;;;;3.50;1.95;;;5.80;99.90;;;;;;4975371;28;20207;-66
2021/03/18 13:12:47;;;;;;;3.35;2.92;;;6.00;99.90;;;;;;4973277;28;20254;-68
2021/03/18 13:15:16;;;;;;;5.50;4.22;;;6.30;99.90;;;;;;4973463;28;20223;-67